Terminal Aerodrome Forecast
Issued by NWS Upton, NY

Home | Current Version | Previous Version | Text Only | Print | Product List | Glossary On
Versions: 1 2 3 4 5 6 7 8 9 10 11 12 13 14 15 16 17 18 19 20 21 22 23 24 25
267
FTUS41 KOKX 081127
TAFLGA
TAF
KLGA 081127Z 0812/0912 04016G26KT P6SM VCSH BKN025 OVC080
     FM081300 04018G27KT 5SM -SN BR BKN015 OVC050
     FM081400 03017G26KT 1SM -SN BKN008 OVC015
     FM081900 02011G17KT 3SM -SN SCT008 OVC015
     FM082300 02009KT P6SM VCSH OVC025
     FM090300 06008KT P6SM VCSH BKN025=

USA.gov is the U.S. government's official web portal to all federal, state and local government web resources and services.